Latest Weather Observations for Mawson*

IDT60801

Issued at 7:31 am EDT Thursday 19 October 2017 (issued every 30 minutes, with the page automatically refreshed every 10 minutes)

About weather observations | Map of weather stations | Latest weather observations for ANT | Other Formats
Station Details ID: 300001 Name: MAWSON Lat: -67.60 Lon: 62.88 Height: 9.9 m
Data from the previous 72 hours. | See also: Recent months at Mawson*
Date/Time
EDT
Temp
°C
App
Temp
°C
Dew
Point
°C
Rel
Hum
%
Delta-T
°C
Wind Press
QNH
hPa
Press
MSL
hPa
Rain since
9am
mm
Dir  Spd
km/h
Gust
km/h
Spd
kts
Gust
kts
19/07:30am -6.2 -25.5 -18.2 38 - SE 83 106 45 57 975.5 - -
19/07:04am -5.6 -24.3 -18.9 34 - SE 80 98 43 53 975.3 - -
19/07:00am -5.8 -24.5 -18.8 35 - SE 80 96 43 52 975.6 - -
19/06:30am -5.8 -24.5 -17.8 38 - SE 80 100 43 54 975.5 - -
19/06:00am -5.9 -24.9 -16.7 42 - SE 82 100 44 54 975.4 - -
19/05:30am -5.4 -23.7 -17.4 38 - SE 78 100 42 54 975.3 - -
19/05:00am -5.2 -23.9 -17.3 38 - SE 80 98 43 53 975.5 975.6 -
19/04:30am -4.9 -24.0 -17.3 37 - SE 82 102 44 55 974.9 - -
19/04:00am -5.2 -24.4 -17.0 39 - SE 83 104 45 56 974.7 - -
19/03:30am -5.1 -24.1 -16.9 39 - SE 82 102 44 55 974.5 - -
19/03:08am -5.3 -24.5 -16.4 41 - SE 83 102 45 55 974.2 - -
19/03:00am -5.6 -24.2 -16.2 43 - SE 80 93 43 50 974.8 - -
19/02:30am -5.6 -24.8 -15.6 45 - SE 83 104 45 56 974.9 - -
19/02:00am -6.3 -25.3 -15.7 47 - SE 82 113 44 61 974.6 974.7 -
19/01:30am -6.7 -24.9 -14.9 52 - ESE 78 109 42 59 975.4 - -
19/01:03am -6.6 -25.6 -15.3 50 - SE 82 100 44 54 975.4 - -
19/01:00am -6.3 -25.5 -15.5 48 - SE 83 100 45 54 974.9 - -
19/12:54am -6.5 -27.2 -15.4 49 - SE 91 100 49 54 975.0 - -
19/12:31am -6.7 -23.7 -14.4 54 - ESE 72 91 39 49 975.3 - -
19/12:30am -6.5 -23.9 -14.5 53 - ESE 74 91 40 49 975.4 - -
19/12:00am -6.4 -23.0 -13.9 55 - ESE 70 93 38 50 975.1 - -
 
Date/Time
EDT
Temp
°C
App
Temp
°C
Dew
Point
°C
Rel
Hum
%
Delta-T
°C
Wind Press
QNH
hPa
Press
MSL
hPa
Rain since
9am
mm
Dir  Spd
km/h
Gust
km/h
Spd
kts
Gust
kts
18/11:32pm -6.6 -23.0 -12.8 61 - ESE 69 87 37 47 975.6 - -
18/11:30pm -6.5 -23.1 -13.0 60 - ESE 70 87 38 47 975.5 - -
18/11:00pm -6.8 -23.1 -12.4 64 - SE 69 87 37 47 975.6 975.7 -
18/10:33pm -6.7 -21.5 -12.2 65 - ESE 61 82 33 44 976.1 - -
18/10:30pm -6.8 -22.4 -12.1 66 - ESE 65 82 35 44 976.0 - -
18/10:00pm -7.1 -21.5 -11.3 72 - ESE 59 82 32 44 975.8 - -
18/09:33pm -6.8 -22.3 -11.9 67 - ESE 65 83 35 45 975.7 - -
18/09:30pm -7.1 -22.6 -11.8 69 - ESE 65 80 35 43 975.9 - -
18/09:07pm -6.6 -21.4 -12.8 61 - ESE 61 80 33 43 975.9 - -
18/09:00pm -6.4 -20.9 -13.1 59 - ESE 59 76 32 41 976.1 - -
18/08:30pm -6.8 -19.6 -13.4 59 - ESE 50 69 27 37 976.5 - -
18/08:29pm -6.8 -19.6 -13.7 58 - ESE 50 69 27 37 976.4 - -
18/08:11pm -6.7 -20.6 -13.6 58 - ESE 56 63 30 34 976.4 - -
18/08:03pm -6.6 -16.9 -13.5 58 - ESE 37 61 20 33 976.5 - -
18/08:00pm -6.8 -17.1 -13.0 61 - ESE 37 54 20 29 976.7 976.8 -
18/07:46pm -7.0 -19.8 -13.2 61 - ESE 50 72 27 39 976.5 - -
18/07:30pm -6.8 -19.6 -14.1 56 - ESE 50 61 27 33 976.6 - -
18/07:03pm -7.0 -19.1 -14.9 53 - ESE 46 65 25 35 976.6 - -
18/07:00pm -7.0 -18.5 -14.9 53 - ESE 43 59 23 32 976.8 - -
18/06:30pm -6.8 -18.9 -15.7 49 - SE 46 56 25 30 976.9 - -
18/06:00pm -7.7 -20.7 -17.0 47 - SE 50 59 27 32 976.7 - -
18/05:30pm -8.8 -22.2 -18.0 47 - SE 52 72 28 39 976.7 - -
18/05:27pm -8.5 -22.2 -17.5 48 - ESE 54 72 29 39 976.5 - -
18/05:00pm -8.5 -22.7 -19.1 42 - SE 56 67 30 36 976.6 976.7 -
18/04:36pm -8.6 -20.0 -19.7 40 - ESE 41 59 22 32 976.8 - -
18/04:30pm -9.1 -21.0 -19.1 44 - ESE 44 56 24 30 977.0 - -
18/04:00pm -10.3 -23.0 -19.9 45 - ESE 48 57 26 31 977.0 - -
18/03:43pm -9.2 -21.2 -21.2 37 - SE 44 63 24 34 977.0 - -
18/03:30pm -10.2 -23.3 -20.9 41 - ESE 50 61 27 33 976.8 - -
18/03:01pm -9.7 -21.7 -21.9 36 - SE 44 67 24 36 976.9 - -
18/03:00pm -10.0 -21.8 -21.6 38 - SE 43 56 23 30 976.9 - -
18/02:30pm -11.4 -23.2 -21.2 44 - SE 43 52 23 28 976.5 - -
18/02:00pm -11.7 -25.3 -23.1 38 - SE 52 65 28 35 976.8 976.9 -
18/01:30pm -12.4 -26.4 -23.5 39 - SE 54 74 29 40 976.5 - -
18/01:00pm -15.0 -29.0 -24.5 44 - SSE 54 63 29 34 977.0 - -
18/12:30pm -14.7 -27.2 -24.7 42 - SSE 46 63 25 34 976.5 - -
18/12:00pm -15.2 -28.8 -24.4 45 - SE 52 59 28 32 976.7 - -
18/11:47am -13.8 -26.3 -24.7 39 - SE 46 65 25 35 976.5 - -
18/11:30am -16.2 -30.2 -24.6 48 - SSE 54 61 29 33 976.6 - -
18/11:12am -13.8 -27.0 -24.4 40 - SE 50 56 27 30 976.3 - -
18/11:00am -16.2 -30.2 -25.1 46 - SSE 54 61 29 33 976.7 976.8 -
18/10:55am -15.2 -28.4 -24.9 43 - SSE 50 57 27 31 976.8 - -
18/10:30am -13.9 -30.0 -25.4 37 - SE 65 70 35 38 976.5 - -
18/10:00am -15.4 -29.8 -25.9 40 - SE 56 72 30 39 976.5 - -
18/09:57am -12.8 -26.8 -26.0 32 - SE 54 72 29 39 976.8 - -
18/09:30am -14.2 -30.6 -23.5 45 - SE 67 74 36 40 976.4 - -
18/09:26am -15.0 -31.8 -23.7 47 - SE 69 74 37 40 976.3 - -
18/09:00am -14.9 -28.1 -25.4 40 - SE 50 69 27 37 976.3 - -
18/08:59am -14.9 -27.8 -25.4 40 - SE 48 69 26 37 976.2 - -
18/08:30am -15.4 -28.3 -25.1 43 - SSE 48 59 26 32 977.0 - -
18/08:00am -15.6 -29.6 -23.8 49 - SSE 54 61 29 33 977.0 977.1 -
18/07:30am -16.5 -30.9 -25.1 47 - SSE 56 65 30 35 977.4 - -
18/07:00am -16.7 -32.0 -25.3 47 - SSE 61 74 33 40 977.7 - -
18/06:54am -16.4 -31.7 -25.8 44 - SSE 61 74 33 40 977.7 - -
18/06:31am -16.6 -28.5 -25.5 46 - SSE 43 61 23 33 977.8 - -
18/06:30am -16.5 -28.0 -25.6 45 - SSE 41 57 22 31 978.0 - -
18/06:29am -15.9 -26.7 -25.1 45 - SSE 37 57 20 31 978.0 - -
18/06:00am -15.0 -26.5 -24.7 43 - SSE 41 54 22 29 978.1 - -
18/05:30am -15.7 -28.9 -24.2 48 - SSE 50 61 27 33 977.9 - -
18/05:00am -16.1 -30.6 -24.1 50 - SSE 57 67 31 36 978.1 978.3 -
18/04:30am -16.3 -31.6 -23.8 52 - SSE 61 72 33 39 978.3 - -
18/04:00am -15.9 -30.2 -23.0 54 - SSE 56 69 30 37 978.5 - -
18/03:30am -14.5 -27.7 -23.8 45 - SSE 50 57 27 31 978.7 - -
18/03:00am -15.5 -30.4 -24.0 48 - SSE 59 70 32 38 978.8 - -
18/02:41am -14.8 -29.2 -25.3 40 - S 56 61 30 33 979.6 - -
18/02:39am -14.4 -24.8 -25.8 37 - SSE 35 63 19 34 979.6 - -
18/02:35am -12.0 -20.3 -25.3 32 - ESE 24 37 13 20 979.9 - -
18/02:30am -14.7 -25.8 -23.5 47 - S 39 57 21 31 979.7 - -
18/02:09am -13.9 -23.7 -24.0 42 - SSE 32 52 17 28 979.7 - -
18/02:08am -13.7 -23.1 -24.1 41 - SSE 30 46 16 25 979.7 - -
18/02:00am -13.4 -20.3 -23.5 42 - SE 17 28 9 15 979.9 980.1 -
18/01:30am -13.0 -24.1 -22.4 45 - SE 39 50 21 27 979.8 - -
18/01:00am -13.4 -25.2 -21.6 50 - SSE 43 48 23 26 979.8 - -
18/12:30am -11.9 -22.6 -21.9 43 - SSE 37 44 20 24 980.0 - -
18/12:20am -11.8 -20.8 -23.2 38 - SSE 28 41 15 22 980.0 - -
18/12:00am -11.7 -16.5 -21.7 43 - NNW 6 7 3 4 980.5 - -
 
Date/Time
EDT
Temp
°C
App
Temp
°C
Dew
Point
°C
Rel
Hum
%
Delta-T
°C
Wind Press
QNH
hPa
Press
MSL
hPa
Rain since
9am
mm
Dir  Spd
km/h
Gust
km/h
Spd
kts
Gust
kts
17/11:30pm -12.7 -18.4 -20.3 53 - E 11 15 6 8 981.0 - -
17/11:00pm -10.8 -17.7 -21.4 41 - WSW 17 24 9 13 981.4 981.6 -
17/10:30pm -12.3 -22.6 -22.5 42 - SW 35 43 19 23 981.6 - -
17/10:09pm -11.6 -23.4 -20.9 46 - S 43 54 23 29 981.8 - -
17/10:00pm -12.1 -19.9 -21.6 45 - SW 22 41 12 22 982.2 - -
17/09:49pm -12.5 -21.2 -24.1 37 - SW 26 43 14 23 982.4 - -
17/09:48pm -12.1 -24.2 -23.8 37 - S 44 63 24 34 982.4 - -
17/09:38pm -11.1 -22.1 -21.4 42 - S 39 48 21 26 982.4 - -
17/09:30pm -12.6 -19.8 -19.3 57 - WSW 19 28 10 15 982.7 - -
17/09:00pm -12.2 -18.0 -23.0 40 - WSW 11 15 6 8 983.0 - -
17/08:30pm -12.5 -20.0 -23.0 41 - SW 20 26 11 14 983.2 - -
17/08:00pm -12.0 -17.1 -25.6 31 - NW 7 11 4 6 983.5 983.7 -
17/07:30pm -12.7 -18.2 -25.9 32 - WSW 9 13 5 7 983.8 - -
17/07:00pm -12.6 -18.5 -26.2 31 - WNW 11 15 6 8 983.9 - -
17/06:30pm -12.7 -18.2 -25.6 33 - WNW 9 13 5 7 984.3 - -
17/06:00pm -12.4 -17.9 -26.3 30 - NNW 9 11 5 6 984.2 - -
17/05:30pm -13.2 -18.3 -26.3 32 - W 7 9 4 5 984.5 - -
17/05:00pm -13.4 -19.6 -25.9 34 - WNW 13 17 7 9 984.5 984.7 -
17/04:30pm -14.5 -21.5 -25.6 38 - WSW 17 20 9 11 985.0 - -
17/04:00pm -13.9 -20.1 -26.0 35 - SSW 13 19 7 10 985.1 - -
17/03:30pm -14.8 -20.6 -25.6 39 - WNW 11 13 6 7 985.2 - -
17/03:00pm -14.1 -19.0 -27.8 30 - S 6 7 3 4 985.5 - -
17/02:30pm -14.7 -19.6 -28.0 31 - S 6 7 3 4 985.6 - -
17/02:00pm -15.5 -21.0 -27.7 34 - SW 9 13 5 7 985.8 986.0 -
17/01:30pm -16.0 -20.9 -25.9 42 - WSW 6 11 3 6 986.2 - -
17/01:00pm -17.0 -22.9 -26.8 42 - W 11 17 6 9 986.3 - -
17/12:30pm -15.4 -22.1 -28.3 32 - ENE 15 24 8 13 986.3 - -
17/12:00pm -16.5 -22.4 -28.3 35 - WNW 11 17 6 9 986.5 - -
17/11:30am -16.8 -23.5 -28.3 36 - WSW 15 26 8 14 986.7 - -
17/11:00am -15.9 -22.9 -27.8 35 - S 17 22 9 12 986.5 986.7 -
17/10:30am -15.9 -24.3 -28.1 34 - S 24 43 13 23 986.7 - -
17/10:07am -16.8 -26.3 -26.6 42 - S 30 65 16 35 986.8 - -
17/10:00am -16.6 -24.9 -27.3 39 - SW 24 32 13 17 987.4 - -
17/09:30am -16.6 -26.4 -26.2 43 - SSW 32 57 17 31 986.7 - -
17/09:14am -16.6 -25.7 -27.5 38 - SW 28 69 15 37 986.8 - -
17/09:07am -16.6 -24.2 -28.4 35 - SW 20 43 11 23 987.2 - -
17/09:04am -15.9 -27.9 -29.1 31 - SSE 43 61 23 33 987.5 - -
17/09:00am -15.5 -26.0 -29.1 30 - S 35 59 19 32 987.3 - -
17/08:57am -14.9 -26.1 -28.2 31 - SSW 39 59 21 32 987.5 - -
17/08:48am -16.0 -26.4 -27.0 38 - W 35 69 19 37 986.9 - -
17/08:30am -15.8 -25.7 -28.3 33 - SSW 32 50 17 27 986.6 - -
17/08:28am -16.0 -25.9 -28.8 32 - SSW 32 50 17 27 986.8 - -
17/08:18am -14.5 -22.1 -28.5 29 - S 20 37 11 20 986.8 - -
17/08:03am -16.4 -28.6 -28.2 35 - SSE 44 63 24 34 987.1 - -
17/08:00am -17.2 -29.7 -27.0 42 - SSE 46 59 25 32 987.1 987.3 -
17/07:41am -17.5 -30.0 -26.8 44 - S 46 67 25 36 986.8 - -
17/07:30am -16.8 -29.3 -27.2 40 - S 46 63 25 34 986.8 - -
17/07:24am -16.9 -28.9 -27.3 40 - S 43 52 23 28 986.8 - -
17/07:00am -16.0 -23.4 -28.2 34 - NW 19 28 10 15 987.0 - -
17/06:30am -17.3 -22.8 -26.8 43 - N 9 19 5 10 987.5 - -
17/06:00am -16.8 -23.4 -27.2 40 - N 15 24 8 13 987.2 - -
17/05:30am -15.7 -21.6 -28.6 32 - S 11 30 6 16 987.2 - -
17/05:10am -16.4 -25.1 -26.3 42 - NNE 26 37 14 20 986.8 - -
17/05:05am -17.5 -28.6 -25.2 51 - E 39 63 21 34 986.8 - -
17/05:00am -17.4 -33.5 -25.7 48 - SSE 65 91 35 49 985.5 985.7 -
17/04:44am -17.4 -34.2 -25.1 51 - SSE 69 87 37 47 985.2 - -
17/04:30am -17.3 -34.1 -24.6 53 - SSE 69 83 37 45 985.4 - -
17/04:00am -16.9 -32.2 -23.8 55 - SSE 61 76 33 41 985.4 - -
17/03:52am -17.1 -31.4 -23.2 59 - SSE 56 74 30 40 985.3 - -
17/03:30am -17.0 -32.6 -22.9 60 - SSE 63 76 34 41 985.4 - -
17/03:19am -16.9 -32.2 -23.6 56 - SSE 61 82 33 44 985.3 - -
17/03:06am -16.9 -31.4 -22.8 60 - SSE 57 65 31 35 985.2 - -
17/03:00am -16.7 -27.8 -23.2 57 - SSE 39 65 21 35 985.5 - -
17/02:58am -16.8 -27.1 -23.1 58 - SSE 35 54 19 29 985.6 - -
17/02:56am -16.9 -28.8 -23.4 57 - SSE 43 54 23 29 986.0 - -
17/02:49am -16.4 -25.5 -27.4 38 - WSW 28 48 15 26 986.2 - -
17/02:32am -15.5 -26.7 -27.7 34 - SSW 39 57 21 31 986.8 - -
17/02:30am -15.5 -26.3 -27.7 34 - SSW 37 52 20 28 986.9 - -
17/02:09am -15.2 -26.4 -27.5 34 - SSW 39 63 21 34 986.7 - -
17/02:06am -14.9 -26.1 -27.5 33 - SSW 39 48 21 26 986.5 - -
17/02:00am -14.8 -26.8 -27.8 32 - S 43 57 23 31 986.4 986.6 -
17/01:36am -14.8 -25.2 -27.1 34 - S 35 46 19 25 986.8 - -
17/01:33am -15.4 -26.2 -26.4 38 - SE 37 46 20 25 986.8 - -
17/01:30am -15.2 -27.3 -26.9 36 - S 44 63 24 34 986.9 - -
17/01:23am -15.1 -25.9 -26.5 37 - S 37 57 20 31 986.6 - -
17/01:16am -15.0 -25.8 -26.4 37 - S 37 43 20 23 986.8 - -
17/01:00am -14.3 -21.9 -27.0 33 - SE 20 37 11 20 986.9 - -
17/12:30am -15.3 -19.7 -22.9 52 - W 4 6 2 3 986.9 - -
17/12:00am -14.7 -20.4 -22.1 53 - W 11 13 6 7 986.8 - -
 
Date/Time
EDT
Temp
°C
App
Temp
°C
Dew
Point
°C
Rel
Hum
%
Delta-T
°C
Wind Press
QNH
hPa
Press
MSL
hPa
Rain since
9am
mm
Dir  Spd
km/h
Gust
km/h
Spd
kts
Gust
kts
16/11:30pm -15.1 -22.0 -22.1 55 - W 17 19 9 10 986.8 - -
16/11:00pm -14.6 -20.7 -21.8 54 - W 13 15 7 8 986.9 987.1 -
16/10:30pm -15.0 -20.8 -24.5 44 - WNW 11 13 6 7 986.9 - -
16/10:00pm -14.4 -20.2 -23.9 44 - WNW 11 15 6 8 986.8 - -
16/09:30pm -14.7 -20.6 -27.0 34 - NNW 11 13 6 7 986.7 - -
16/09:00pm -14.8 -21.4 -25.3 40 - NNW 15 17 8 9 986.4 - -
16/08:30pm -15.3 -22.3 -25.3 42 - N 17 20 9 11 986.1 - -
16/08:00pm -15.9 -23.5 -26.3 40 - NE 20 28 11 15 986.2 986.4 -
16/07:30pm -13.7 -24.1 -24.1 41 - ESE 35 43 19 23 985.6 - -
16/07:00pm -13.8 -23.8 -24.7 39 - ESE 33 43 18 23 985.4 - -
16/06:30pm -13.2 -21.5 -26.0 33 - SSE 24 39 13 21 985.3 - -
16/06:00pm -13.7 -23.5 -24.1 41 - SE 32 39 17 21 985.3 - -
16/05:30pm -14.2 -24.6 -26.0 36 - SE 35 46 19 25 985.4 - -
16/05:00pm -14.7 -23.4 -24.7 42 - SE 26 39 14 21 985.9 986.1 -
16/04:30pm -14.9 -24.7 -25.2 41 - SSE 32 35 17 19 985.9 - -
16/04:01pm -15.7 -25.7 -25.1 44 - SSE 33 52 18 28 985.7 - -
16/04:00pm -15.8 -26.2 -25.5 43 - SSE 35 52 19 28 985.7 - -
16/03:30pm -17.3 -30.9 -25.9 47 - SSE 52 63 28 34 985.9 - -
16/03:00pm -17.5 -31.5 -25.4 50 - SSE 54 65 29 35 985.8 - -
16/02:30pm -17.8 -33.5 -26.6 46 - SSE 63 76 34 41 985.9 - -
16/02:01pm -18.3 -32.4 -27.8 43 - S 54 72 29 39 986.0 - -
16/02:00pm -18.4 -32.4 -27.4 45 - S 54 70 29 38 986.0 986.2 -
16/01:58pm -18.3 -31.6 -27.0 46 - S 50 69 27 37 986.2 - -
16/01:46pm -18.8 -32.1 -27.3 47 - S 50 59 27 32 986.5 - -
16/01:30pm -18.5 -34.7 -28.2 42 - SSE 65 76 35 41 985.6 - -
16/01:00pm -19.5 -35.3 -27.7 48 - SSE 63 74 34 40 986.0 - -

Other Formats:

Comma delimited format used in spreadsheet applications
http://www.bom.gov.au/fwo/IDT60803/IDT60803.89564.axf

JavaScript Object Notation format (JSON) in row-major order
http://www.bom.gov.au/fwo/IDT60803/IDT60803.89564.json